Time;durP1;ratioP1;P1;durP2;ratioP2;P2;SDS_P1;SDS_P2;PMS_P1;PMS_P2;Temp;Humidity;BMP_temperature;BMP_pressure;BME280_temperature;BME280_humidity;BME280_pressure;Samples;Min_cycle;Max_cycle;Signal;HPM_P1;HPM_P2
2022/04/14 00:01:37;;;;;;;1.95;1.17;;;3.70;99.90;;;;;;5013024;28;20636;-66
2022/04/14 00:04:03;;;;;;;1.38;0.73;;;3.70;99.90;;;;;;5012680;28;20363;-67
2022/04/14 00:06:29;;;;;;;3.45;0.90;;;3.70;99.90;;;;;;5012694;28;20393;-67
2022/04/14 00:08:55;;;;;;;1.15;0.70;;;3.80;99.90;;;;;;5012567;28;20021;-67
2022/04/14 00:11:21;;;;;;;2.08;0.90;;;3.80;99.90;;;;;;5012707;28;20037;-66
2022/04/14 00:13:47;;;;;;;1.67;0.70;;;3.80;99.90;;;;;;5012477;28;20073;-65
2022/04/14 00:16:12;;;;;;;1.88;1.10;;;3.80;99.90;;;;;;5012713;28;20033;-65
2022/04/14 00:18:38;;;;;;;1.77;1.00;;;3.80;99.90;;;;;;5012581;28;20385;-65
2022/04/14 00:21:04;;;;;;;2.58;0.85;;;3.80;99.90;;;;;;5012682;28;20182;-65
2022/04/14 00:23:30;;;;;;;3.58;0.80;;;3.70;99.90;;;;;;5012350;28;20392;-65
2022/04/14 00:25:55;;;;;;;2.75;1.00;;;3.70;99.90;;;;;;5012430;28;20030;-66
2022/04/14 00:28:21;;;;;;;1.35;0.80;;;3.60;99.90;;;;;;5012624;28;20061;-66
2022/04/14 00:30:47;;;;;;;2.00;0.80;;;3.50;99.90;;;;;;5012505;28;20121;-66
2022/04/14 00:33:13;;;;;;;2.72;1.10;;;3.50;99.90;;;;;;5012221;28;20036;-66
2022/04/14 00:35:38;;;;;;;1.23;1.10;;;3.50;99.90;;;;;;5012150;28;20038;-66
2022/04/14 00:38:04;;;;;;;2.05;0.90;;;3.50;99.90;;;;;;5011933;28;20049;-66
2022/04/14 00:40:30;;;;;;;0.82;0.80;;;3.40;99.90;;;;;;5012601;28;20022;-66
2022/04/14 00:42:55;;;;;;;1.38;0.80;;;3.40;99.90;;;;;;5012070;28;20030;-66
2022/04/14 00:45:21;;;;;;;1.00;0.90;;;3.40;99.90;;;;;;5012422;28;20113;-66
2022/04/14 00:47:47;;;;;;;3.83;1.00;;;3.40;99.90;;;;;;5012225;28;20030;-67
2022/04/14 00:50:13;;;;;;;3.13;0.82;;;3.30;99.90;;;;;;5012202;28;20430;-66
2022/04/14 00:52:46;;;;;;;1.20;0.82;;;3.20;99.90;;;;;;5012150;28;20025;-66
2022/04/14 00:55:13;;;;;;;2.13;1.17;;;3.20;99.90;;;;;;4994467;28;20067;-67
2022/04/14 00:57:39;;;;;;;1.90;0.80;;;3.10;99.90;;;;;;5012252;28;20091;-67
2022/04/14 01:00:05;;;;;;;1.38;0.90;;;3.00;99.90;;;;;;5012131;28;20030;-67
2022/04/14 01:02:31;;;;;;;2.15;1.00;;;3.00;99.90;;;;;;5012377;28;20037;-67
2022/04/14 01:04:58;;;;;;;2.13;1.05;;;3.00;99.90;;;;;;5015817;28;20385;-67
2022/04/14 01:07:25;;;;;;;1.33;0.80;;;2.80;99.90;;;;;;5016139;28;20026;-67
2022/04/14 01:09:52;;;;;;;0.95;0.80;;;2.50;99.90;;;;;;5016195;28;20030;-67
2022/04/14 01:12:18;;;;;;;1.83;1.08;;;2.50;99.90;;;;;;5015899;28;20018;-67
2022/04/14 01:14:44;;;;;;;2.25;0.82;;;2.40;99.90;;;;;;5016099;28;20460;-67
2022/04/14 01:17:10;;;;;;;2.80;0.90;;;2.50;99.90;;;;;;5015880;28;20129;-67
2022/04/14 01:19:37;;;;;;;3.50;1.20;;;2.50;99.90;;;;;;5015901;28;20536;-67
2022/04/14 01:22:22;;;;;;;1.90;0.90;;;2.40;99.90;;;;;;5015556;28;20030;-67
2022/04/14 01:24:48;;;;;;;1.40;1.00;;;2.50;99.90;;;;;;5015708;28;20031;-68
2022/04/14 01:27:14;;;;;;;1.95;1.17;;;2.50;99.90;;;;;;5015585;28;20034;-67
2022/04/14 01:29:40;;;;;;;0.75;0.73;;;2.60;99.90;;;;;;5015944;28;20022;-67
2022/04/14 01:32:06;;;;;;;1.75;0.80;;;2.70;99.90;;;;;;5015432;28;20428;-66
2022/04/14 01:34:32;;;;;;;0.95;0.90;;;2.70;99.90;;;;;;5015669;28;20029;-66
2022/04/14 01:37:00;;;;;;;1.50;0.90;;;2.70;99.90;;;;;;5015368;28;20038;-67
2022/04/14 01:39:26;;;;;;;0.90;0.80;;;2.70;99.90;;;;;;5015632;28;20033;-67
2022/04/14 01:41:52;;;;;;;0.93;0.60;;;2.80;99.90;;;;;;5015185;28;20036;-67
2022/04/14 01:44:17;;;;;;;2.65;0.80;;;2.70;99.90;;;;;;5015352;28;20022;-67
2022/04/14 01:46:43;;;;;;;1.85;1.10;;;2.60;99.90;;;;;;5015577;28;20076;-66
2022/04/14 01:49:09;;;;;;;2.05;0.80;;;2.60;99.90;;;;;;5015390;28;20024;-67
2022/04/14 01:51:36;;;;;;;3.05;1.20;;;2.60;99.90;;;;;;5015423;28;20034;-67
2022/04/14 01:54:02;;;;;;;1.67;0.90;;;2.60;99.90;;;;;;5015147;28;20082;-68
2022/04/14 01:56:28;;;;;;;2.05;0.90;;;2.60;99.90;;;;;;5014997;28;20030;-67
2022/04/14 01:58:53;;;;;;;1.58;0.80;;;2.60;99.90;;;;;;5015033;28;20034;-67
2022/04/14 02:01:20;;;;;;;1.25;0.88;;;2.70;99.90;;;;;;5015154;28;20049;-67
2022/04/14 02:03:46;;;;;;;2.78;1.00;;;2.70;99.90;;;;;;5015091;28;20133;-67
2022/04/14 02:06:12;;;;;;;1.90;0.82;;;2.50;99.90;;;;;;5014922;28;20072;-67
2022/04/14 02:08:38;;;;;;;2.03;0.98;;;2.40;99.90;;;;;;5014867;28;20460;-67
2022/04/14 02:11:04;;;;;;;2.08;0.95;;;2.30;99.90;;;;;;5015034;28;20165;-67
2022/04/14 02:13:30;;;;;;;0.80;0.80;;;2.20;99.90;;;;;;5014744;28;20473;-67
2022/04/14 02:15:56;;;;;;;1.83;1.00;;;2.20;99.90;;;;;;5014159;28;20034;-68
2022/04/14 02:18:22;;;;;;;1.00;0.70;;;2.10;99.90;;;;;;5014797;28;20446;-66
2022/04/14 02:20:47;;;;;;;3.03;0.98;;;2.10;99.90;;;;;;5015032;28;20017;-66
2022/04/14 02:23:13;;;;;;;1.42;0.90;;;2.00;99.90;;;;;;4997001;28;20053;-66
2022/04/14 02:54:43;;;;;;;2.92;1.20;;;1.60;99.90;;;;;;5013269;28;20057;-70
2022/04/14 02:57:09;;;;;;;2.80;0.80;;;1.60;99.90;;;;;;5013781;28;20448;-69
2022/04/14 02:59:36;;;;;;;0.88;0.80;;;1.50;99.90;;;;;;5014282;28;20030;-69
2022/04/14 03:02:03;;;;;;;4.55;1.15;;;1.50;99.90;;;;;;5013746;28;20449;-69
2022/04/14 03:38:09;;;;;;;3.85;1.10;;;1.30;99.90;;;;;;5340348;23;20058;-67
2022/04/14 03:40:34;;;;;;;4.28;1.05;;;1.30;99.90;;;;;;4993398;28;20029;-67
2022/04/14 03:43:00;;;;;;;1.35;1.05;;;1.30;99.90;;;;;;4993555;28;20437;-68
2022/04/14 03:45:26;;;;;;;3.00;1.33;;;1.30;99.90;;;;;;4993438;28;20034;-68
2022/04/14 03:47:52;;;;;;;4.43;1.20;;;1.30;99.90;;;;;;5000015;28;20485;-68
2022/04/14 03:50:17;;;;;;;2.67;1.30;;;1.30;99.90;;;;;;4993348;28;20076;-69
2022/04/14 03:52:43;;;;;;;1.50;1.00;;;1.30;99.90;;;;;;4993559;28;20043;-69
2022/04/14 03:55:09;;;;;;;2.65;1.10;;;1.40;99.90;;;;;;4993443;28;20420;-68
2022/04/14 03:57:35;;;;;;;4.40;1.13;;;1.40;99.90;;;;;;4993426;28;20129;-68
2022/04/14 04:00:00;;;;;;;3.30;1.17;;;1.40;99.90;;;;;;4993230;28;20111;-68
2022/04/14 04:02:26;;;;;;;3.92;0.98;;;1.40;99.90;;;;;;4993171;28;20030;-68
2022/04/14 04:04:52;;;;;;;1.48;0.90;;;1.40;99.90;;;;;;4993614;28;20073;-68
2022/04/14 04:07:18;;;;;;;7.13;1.30;;;1.40;99.90;;;;;;4993172;28;20053;-68
2022/04/14 04:09:43;;;;;;;2.05;1.00;;;1.40;99.90;;;;;;4993208;28;20022;-68
2022/04/14 04:12:09;;;;;;;7.90;1.00;;;1.30;99.90;;;;;;4993158;28;20114;-68
2022/04/14 04:14:35;;;;;;;1.73;1.13;;;1.30;99.90;;;;;;4992958;28;20481;-68
2022/04/14 04:17:01;;;;;;;1.98;1.10;;;1.40;99.90;;;;;;4992849;28;20095;-68
2022/04/14 04:19:27;;;;;;;2.72;1.00;;;1.30;99.90;;;;;;4992691;28;20382;-68
2022/04/14 04:21:53;;;;;;;1.63;1.10;;;1.30;99.90;;;;;;4992816;28;20023;-68
2022/04/14 04:24:18;;;;;;;3.17;1.48;;;1.30;99.90;;;;;;4975600;28;20018;-68
2022/04/14 04:26:44;;;;;;;3.85;1.20;;;1.30;99.90;;;;;;4993092;28;20661;-68
2022/04/14 04:29:10;;;;;;;2.42;1.52;;;1.40;99.90;;;;;;4992634;28;20034;-67
2022/04/14 04:31:36;;;;;;;2.72;1.00;;;1.40;99.90;;;;;;4992619;28;20063;-66
2022/04/14 04:34:02;;;;;;;1.10;1.00;;;1.40;99.90;;;;;;4992624;28;20061;-67
2022/04/14 04:36:27;;;;;;;1.05;0.93;;;1.40;99.90;;;;;;4992625;28;20482;-69
2022/04/14 04:38:53;;;;;;;7.05;1.10;;;1.50;99.90;;;;;;5007716;28;20052;-69
2022/04/14 04:41:19;;;;;;;3.53;1.30;;;1.60;99.90;;;;;;4994850;28;20487;-67
2022/04/14 04:43:45;;;;;;;2.50;1.20;;;2.00;99.90;;;;;;5011904;28;20330;-69
2022/04/14 04:46:10;;;;;;;4.03;1.20;;;2.00;99.90;;;;;;5001281;28;20032;-66
2022/04/14 04:48:36;;;;;;;3.10;1.08;;;1.90;99.90;;;;;;5008587;28;20026;-68
2022/04/14 04:51:02;;;;;;;1.23;0.93;;;1.90;99.90;;;;;;5008767;28;20026;-68
2022/04/14 04:53:27;;;;;;;2.05;1.20;;;1.80;99.90;;;;;;5010985;28;20033;-70
2022/04/14 04:55:53;;;;;;;2.85;1.02;;;1.70;99.90;;;;;;5009908;28;20484;-73
2022/04/14 04:58:19;;;;;;;2.92;1.90;;;1.60;99.90;;;;;;5005908;28;20059;-73
2022/04/14 05:00:45;;;;;;;3.72;1.17;;;1.60;99.90;;;;;;4995560;28;20085;-73
2022/04/14 05:03:11;;;;;;;1.92;1.20;;;1.70;99.90;;;;;;5002977;28;20040;-73
2022/04/14 05:05:40;;;;;;;1.73;1.10;;;1.70;99.90;;;;;;5011359;28;20495;-72
2022/04/14 05:08:07;;;;;;;1.65;1.00;;;1.80;99.90;;;;;;5011205;28;20022;-72
2022/04/14 05:10:34;;;;;;;4.30;1.20;;;1.80;99.90;;;;;;5008603;28;20022;-70
2022/04/14 05:13:00;;;;;;;2.38;1.17;;;1.70;99.90;;;;;;5011215;28;20413;-69
2022/04/14 05:15:26;;;;;;;2.35;1.13;;;1.70;99.90;;;;;;5008064;28;20473;-70
2022/04/14 05:17:51;;;;;;;3.03;1.05;;;1.70;99.90;;;;;;5012036;28;20121;-69
2022/04/14 05:20:17;;;;;;;3.50;0.93;;;1.60;99.90;;;;;;5012080;28;20034;-71
2022/04/14 05:22:43;;;;;;;5.18;1.30;;;1.70;99.90;;;;;;5011658;28;20065;-72
2022/04/14 05:25:09;;;;;;;2.13;1.10;;;1.70;99.90;;;;;;5011970;28;20037;-72
2022/04/14 05:27:34;;;;;;;1.45;1.00;;;1.80;99.90;;;;;;5011691;28;20030;-72
2022/04/14 05:30:00;;;;;;;1.30;0.88;;;1.80;99.90;;;;;;5012059;28;20030;-72
2022/04/14 05:32:26;;;;;;;1.40;1.00;;;2.00;99.90;;;;;;5011570;28;20033;-72
2022/04/14 05:34:52;;;;;;;2.40;1.13;;;2.30;99.90;;;;;;5012034;28;20105;-72
2022/04/14 05:37:18;;;;;;;1.25;1.10;;;2.60;99.90;;;;;;5011259;28;20054;-72
2022/04/14 05:39:43;;;;;;;1.77;0.90;;;3.00;99.90;;;;;;5011706;28;20026;-72
2022/04/14 05:42:09;;;;;;;0.82;0.80;;;3.60;99.90;;;;;;5011587;28;20388;-72
2022/04/14 05:44:35;;;;;;;8.90;1.15;;;4.10;99.90;;;;;;5011587;28;20028;-72
2022/04/14 05:47:01;;;;;;;2.38;1.30;;;4.60;99.90;;;;;;5011525;28;20058;-73
2022/04/14 05:49:26;;;;;;;2.47;0.73;;;5.00;99.90;;;;;;5012090;28;20037;-72
2022/04/14 05:51:52;;;;;;;1.70;1.00;;;5.30;99.90;;;;;;5015033;28;20084;-70
2022/04/14 05:54:17;;;;;;;3.00;1.13;;;5.70;99.90;;;;;;4997363;28;20018;-70
2022/04/14 05:56:43;;;;;;;1.42;0.90;;;6.10;99.90;;;;;;5015146;28;20040;-70
2022/04/14 05:59:16;;;;;;;3.65;1.10;;;6.40;99.90;;;;;;5014944;28;20021;-71
2022/04/14 06:01:45;;;;;;;1.48;0.80;;;7.40;99.90;;;;;;5015332;28;20116;-68
2022/04/14 06:04:11;;;;;;;7.93;2.13;;;8.00;99.90;;;;;;5014865;28;20028;-69
2022/04/14 06:06:37;;;;;;;3.10;1.02;;;8.00;99.90;;;;;;5015013;28;20125;-68
2022/04/14 06:09:03;;;;;;;0.50;0.50;;;8.10;99.90;;;;;;5014907;28;20022;-69
2022/04/14 06:11:28;;;;;;;5.82;1.17;;;8.00;99.90;;;;;;5014884;28;20030;-69
2022/04/14 06:13:54;;;;;;;1.35;0.73;;;8.10;99.90;;;;;;5015045;28;20110;-69
2022/04/14 06:16:20;;;;;;;1.38;0.80;;;8.30;99.90;;;;;;5014554;28;20409;-69
2022/04/14 06:18:46;;;;;;;3.53;2.05;;;8.40;98.60;;;;;;5014445;28;20030;-66
2022/04/14 06:21:11;;;;;;;6.63;0.65;;;8.60;97.60;;;;;;5014115;28;20034;-68
2022/04/14 06:23:37;;;;;;;3.08;0.73;;;8.70;96.50;;;;;;5014864;28;20029;-67
2022/04/14 06:26:04;;;;;;;1.35;0.70;;;8.90;99.90;;;;;;5014893;28;20087;-67
2022/04/14 06:28:31;;;;;;;1.38;0.60;;;9.20;99.40;;;;;;5014298;28;20026;-67
2022/04/14 06:30:57;;;;;;;4.22;0.82;;;9.40;96.60;;;;;;5013965;28;20053;-67
2022/04/14 06:33:23;;;;;;;1.70;0.68;;;9.60;95.80;;;;;;5014522;28;20060;-67
2022/04/14 06:35:49;;;;;;;4.03;0.60;;;9.90;94.70;;;;;;5014029;28;20454;-67
2022/04/14 06:38:15;;;;;;;2.10;0.68;;;10.10;92.90;;;;;;5013687;28;20050;-68
2022/04/14 06:40:41;;;;;;;1.20;0.90;;;10.10;91.10;;;;;;5013940;28;20022;-69
2022/04/14 06:43:07;;;;;;;1.10;0.85;;;10.10;90.20;;;;;;5014224;28;20107;-67
2022/04/14 06:45:33;;;;;;;2.80;0.70;;;10.00;89.90;;;;;;5012356;28;20034;-68
2022/04/14 06:47:59;;;;;;;2.25;0.70;;;9.90;90.20;;;;;;5012647;28;20013;-66
2022/04/14 06:50:26;;;;;;;8.43;0.98;;;9.90;90.50;;;;;;5013678;28;20037;-69
2022/04/14 06:52:52;;;;;;;1.20;0.60;;;10.00;90.60;;;;;;5013600;28;20030;-78
2022/04/14 06:55:21;;;;;;;1.48;0.80;;;10.10;90.80;;;;;;5013590;28;20036;-77
2022/04/14 06:57:47;;;;;;;4.10;0.85;;;10.10;90.60;;;;;;5013893;28;20084;-77
2022/04/14 07:00:13;;;;;;;1.65;0.65;;;10.10;90.00;;;;;;5013779;28;20037;-78
2022/04/14 07:03:05;;;;;;;3.45;0.70;;;10.00;87.90;;;;;;5013717;28;20025;-78
2022/04/14 07:05:31;;;;;;;4.95;0.77;;;10.00;90.50;;;;;;5009922;28;20072;-72
2022/04/14 07:07:56;;;;;;;1.60;0.70;;;10.10;89.50;;;;;;5013842;28;20022;-76
2022/04/14 07:10:22;;;;;;;1.42;0.50;;;10.10;88.10;;;;;;5013615;28;20115;-77
2022/04/14 07:12:48;;;;;;;0.93;0.50;;;10.10;87.90;;;;;;5013936;28;20014;-70
2022/04/14 07:15:14;;;;;;;1.60;0.50;;;9.90;87.50;;;;;;5013767;28;20054;-71
2022/04/14 07:17:40;;;;;;;9.02;0.73;;;9.80;88.30;;;;;;5013825;28;20426;-71
2022/04/14 07:20:09;;;;;;;2.58;0.65;;;9.90;88.90;;;;;;5013636;28;20473;-68
2022/04/14 07:22:46;;;;;;;4.50;0.63;;;9.80;88.30;;;;;;5013718;28;20048;-68
2022/04/14 07:25:13;;;;;;;1.40;0.55;;;9.70;89.30;;;;;;4993932;28;20081;-68
2022/04/14 07:27:39;;;;;;;2.80;0.70;;;9.70;90.10;;;;;;5004767;28;20053;-68
2022/04/14 07:30:05;;;;;;;1.88;0.60;;;9.70;91.40;;;;;;5013370;28;20057;-68
2022/04/14 07:32:49;;;;;;;8.55;0.98;;;9.80;90.90;;;;;;5013245;28;20429;-68
2022/04/14 07:35:15;;;;;;;1.73;0.57;;;9.90;90.00;;;;;;5013194;28;20022;-68
2022/04/14 07:37:42;;;;;;;1.77;0.63;;;9.60;89.80;;;;;;5012889;28;20056;-68
2022/04/14 07:40:08;;;;;;;0.98;0.50;;;9.30;90.70;;;;;;5012951;28;20014;-68
2022/04/14 07:42:37;;;;;;;1.70;0.60;;;9.00;91.20;;;;;;5013001;28;20030;-67
2022/04/14 07:45:04;;;;;;;2.53;0.40;;;8.70;92.00;;;;;;5013000;28;20056;-68
2022/04/14 07:47:30;;;;;;;1.15;0.93;;;8.70;92.50;;;;;;5012694;28;20030;-67
2022/04/14 07:49:55;;;;;;;1.77;0.68;;;8.60;92.70;;;;;;5013001;28;20028;-68
2022/04/14 07:52:21;;;;;;;2.75;0.70;;;8.60;93.30;;;;;;5012875;28;20113;-69
2022/04/14 07:54:48;;;;;;;92.38;4.05;;;8.70;93.30;;;;;;5013077;28;20053;-68
2022/04/14 07:57:14;;;;;;;1.88;0.70;;;9.20;99.90;;;;;;5012692;28;20042;-66
2022/04/14 07:59:40;;;;;;;0.57;0.40;;;10.30;99.90;;;;;;5012942;28;20030;-69
2022/04/14 08:02:05;;;;;;;1.02;0.60;;;11.30;96.70;;;;;;5012847;28;20472;-69
2022/04/14 08:04:31;;;;;;;0.73;0.40;;;10.60;90.00;;;;;;5012719;28;20373;-70
2022/04/14 08:06:57;;;;;;;0.75;0.45;;;9.80;90.40;;;;;;5013081;28;20029;-72
2022/04/14 08:09:23;;;;;;;0.65;0.40;;;9.50;91.60;;;;;;5012980;28;20435;-72
2022/04/14 08:11:49;;;;;;;0.50;0.50;;;9.40;99.90;;;;;;5012732;28;20026;-72
2022/04/14 08:14:15;;;;;;;21.38;1.02;;;9.60;95.10;;;;;;5012691;28;20030;-70
2022/04/14 08:16:40;;;;;;;1.05;0.73;;;9.40;94.10;;;;;;5012411;28;20048;-73
2022/04/14 08:19:06;;;;;;;57.70;2.55;;;10.60;99.90;;;;;;5012451;28;20026;-73
2022/04/14 08:21:32;;;;;;;0.80;0.70;;;10.50;91.60;;;;;;5011930;28;20406;-73
2022/04/14 08:23:58;;;;;;;10.35;1.08;;;10.10;90.50;;;;;;5011906;28;20022;-73
2022/04/14 08:26:26;;;;;;;0.88;0.50;;;9.70;90.90;;;;;;5011629;28;20496;-71
2022/04/14 08:28:53;;;;;;;5.35;1.27;;;9.40;90.40;;;;;;5012298;28;20492;-68
2022/04/14 08:31:21;;;;;;;2.30;0.57;;;9.80;99.90;;;;;;5012253;28;20022;-68
2022/04/14 08:33:48;;;;;;;5.60;0.98;;;9.80;92.40;;;;;;5012103;28;20022;-68
2022/04/14 08:36:18;;;;;;;1.42;0.52;;;9.60;91.60;;;;;;5012327;28;20114;-68
2022/04/14 08:38:47;;;;;;;1.00;0.50;;;9.40;91.00;;;;;;5011918;28;20129;-68
2022/04/14 08:41:21;;;;;;;3.97;0.57;;;9.10;90.60;;;;;;5012243;28;20410;-68
2022/04/14 08:43:51;;;;;;;0.77;0.40;;;8.90;90.30;;;;;;5012113;28;20045;-69
2022/04/14 08:46:19;;;;;;;0.30;0.30;;;9.90;99.90;;;;;;5012140;28;20085;-69
2022/04/14 08:48:52;;;;;;;7.68;0.80;;;9.60;91.00;;;;;;5011533;28;20017;-68
2022/04/14 08:51:20;;;;;;;72.20;3.58;;;9.20;90.20;;;;;;5012091;28;20030;-69
2022/04/14 08:53:47;;;;;;;14.90;1.75;;;9.00;90.20;;;;;;5011924;28;20033;-69
2022/04/14 08:56:13;;;;;;;3.35;0.52;;;8.80;90.20;;;;;;5012067;28;20460;-69
2022/04/14 08:58:42;;;;;;;2.00;0.55;;;8.80;90.30;;;;;;5011667;28;20133;-68
2022/04/14 09:01:08;;;;;;;1.05;0.60;;;8.60;89.10;;;;;;5012196;28;20441;-68
2022/04/14 09:03:34;;;;;;;1.45;0.60;;;8.70;89.30;;;;;;5011803;28;20057;-69
2022/04/14 09:06:01;;;;;;;0.95;0.60;;;8.70;90.50;;;;;;5012097;28;20030;-69
2022/04/14 09:08:27;;;;;;;0.73;0.47;;;8.60;90.50;;;;;;5011629;28;20473;-69
2022/04/14 09:10:53;;;;;;;1.08;0.47;;;8.60;91.10;;;;;;5012151;28;20109;-69
2022/04/14 09:13:22;;;;;;;1.08;0.50;;;8.60;90.90;;;;;;5011699;28;20025;-69
2022/04/14 09:15:48;;;;;;;1.50;0.60;;;8.50;90.70;;;;;;5011730;28;20018;-68
2022/04/14 09:18:14;;;;;;;21.85;1.00;;;8.60;91.30;;;;;;5012144;28;20109;-69
2022/04/14 09:20:42;;;;;;;15.18;1.08;;;8.60;91.20;;;;;;5011514;28;20183;-69
2022/04/14 09:23:21;;;;;;;0.70;0.50;;;8.50;90.60;;;;;;5011886;28;20038;-69
2022/04/14 09:26:02;;;;;;;0.47;0.40;;;8.50;90.00;;;;;;5014951;28;20030;-71
2022/04/14 09:28:29;;;;;;;0.50;0.50;;;8.40;90.70;;;;;;5015498;28;20049;-71
2022/04/14 09:31:04;;;;;;;2.78;0.70;;;8.50;90.70;;;;;;4998087;28;20029;-72
2022/04/14 09:33:35;;;;;;;1.30;0.60;;;8.60;91.80;;;;;;5015806;28;20084;-72
2022/04/14 09:36:12;;;;;;;;;;;8.70;90.30;;;;;;5016229;28;20440;-72
2022/04/14 09:38:49;;;;;;;2.08;0.60;;;8.70;88.90;;;;;;5015211;28;19921;-72
2022/04/14 09:41:37;;;;;;;1.38;0.60;;;8.60;89.10;;;;;;5015425;28;20038;-70
2022/04/14 09:44:14;;;;;;;2.35;0.60;;;8.60;88.90;;;;;;5015474;28;20021;-71
2022/04/14 09:46:45;;;;;;;11.82;2.35;;;8.60;88.50;;;;;;5015233;28;20033;-77
2022/04/14 09:49:18;;;;;;;21.25;1.00;;;8.50;86.80;;;;;;5012620;28;20552;-74
2022/04/14 09:51:48;;;;;;;11.15;0.90;;;8.40;85.40;;;;;;4995440;28;20470;-74
2022/04/14 09:54:16;;;;;;;;;;;8.40;85.20;;;;;;4996001;28;20019;-74
2022/04/14 09:56:43;;;;;;;1.92;0.50;;;8.40;83.60;;;;;;4995150;28;20285;-75
2022/04/14 09:59:10;;;;;;;2.55;0.60;;;8.40;85.30;;;;;;4995351;28;20029;-74
2022/04/14 10:01:36;;;;;;;11.20;0.90;;;8.50;85.50;;;;;;4995287;28;20117;-74
2022/04/14 10:04:03;;;;;;;1.00;0.50;;;8.40;85.50;;;;;;4995446;28;20065;-75
2022/04/14 10:06:29;;;;;;;2.03;0.50;;;8.40;85.10;;;;;;4995492;28;20027;-75
2022/04/14 10:08:55;;;;;;;2.88;0.50;;;8.30;84.90;;;;;;4995394;28;20086;-74
2022/04/14 10:11:34;;;;;;;0.73;0.50;;;8.30;84.50;;;;;;5013996;28;20026;-75
2022/04/14 10:14:18;;;;;;;2.20;0.50;;;8.40;83.90;;;;;;5015156;28;20044;-75
2022/04/14 10:16:46;;;;;;;1.40;0.50;;;8.50;82.00;;;;;;5014682;28;20057;-74
2022/04/14 10:19:13;;;;;;;14.35;0.93;;;8.50;81.10;;;;;;5014688;28;20028;-74
2022/04/14 10:21:39;;;;;;;1.25;0.40;;;8.50;80.10;;;;;;4997161;28;20036;-75
2022/04/14 10:24:06;;;;;;;0.32;0.32;;;8.50;79.50;;;;;;5014888;28;20057;-75
2022/04/14 10:26:34;;;;;;;2.92;0.73;;;8.50;78.30;;;;;;5012043;28;20503;-73
2022/04/14 10:29:03;;;;;;;0.52;0.30;;;8.50;79.70;;;;;;5014718;28;20029;-73
2022/04/14 10:31:30;;;;;;;0.50;0.50;;;8.40;79.20;;;;;;4996727;28;20041;-74
2022/04/14 10:33:59;;;;;;;0.73;0.45;;;8.40;79.00;;;;;;5013819;28;20026;-73
2022/04/14 10:36:25;;;;;;;0.95;0.47;;;8.30;79.00;;;;;;5013437;28;20048;-74
2022/04/14 10:38:51;;;;;;;0.77;0.60;;;8.40;78.50;;;;;;5014170;28;20140;-74
2022/04/14 10:41:25;;;;;;;0.57;0.43;;;8.40;79.00;;;;;;5014339;28;20026;-74
2022/04/14 10:43:51;;;;;;;3.00;0.57;;;8.40;79.70;;;;;;5014270;28;20060;-73
2022/04/14 10:46:17;;;;;;;1.65;0.63;;;8.50;77.20;;;;;;5014068;28;20508;-73
2022/04/14 10:48:44;;;;;;;3.90;0.50;;;8.40;76.40;;;;;;5014250;28;20030;-73
2022/04/14 10:51:28;;;;;;;9.27;1.00;;;8.40;77.30;;;;;;5014248;28;20471;-70
2022/04/14 10:54:00;;;;;;;10.25;0.70;;;8.40;79.40;;;;;;5014102;28;20030;-72
2022/04/14 10:56:42;;;;;;;11.75;0.85;;;8.50;77.90;;;;;;5014041;28;20121;-72
2022/04/14 10:59:14;;;;;;;0.55;0.47;;;8.50;78.70;;;;;;5014275;28;20025;-72
2022/04/14 11:01:50;;;;;;;4.05;0.52;;;8.60;78.10;;;;;;5013658;28;20022;-71
2022/04/14 11:04:51;;;;;;;2.13;1.20;;;8.70;78.60;;;;;;5013349;28;20113;-74
2022/04/14 11:07:21;;;;;;;1.38;0.57;;;8.90;77.50;;;;;;4994350;28;20517;-73
2022/04/14 11:09:49;;;;;;;3.30;0.50;;;9.00;76.40;;;;;;5005907;28;20160;-73
2022/04/14 11:12:22;;;;;;;8.50;0.95;;;8.90;75.80;;;;;;5013765;28;20083;-73
2022/04/14 11:14:56;;;;;;;17.15;1.30;;;8.90;74.70;;;;;;5013457;28;20052;-73
2022/04/14 11:17:33;;;;;;;4.90;0.70;;;8.70;75.30;;;;;;5013469;28;20539;-73
2022/04/14 11:20:30;;;;;;;3.97;0.68;;;8.60;75.90;;;;;;5013396;28;20026;-73
2022/04/14 11:23:09;;;;;;;2.63;0.73;;;8.50;75.60;;;;;;5013567;28;20385;-73
2022/04/14 11:28:30;;;;;;;98.55;5.55;;;8.50;75.70;;;;;;5013541;28;20057;-74
2022/04/14 11:31:00;;;;;;;0.43;0.43;;;8.60;75.00;;;;;;5013610;28;20022;-74
2022/04/14 11:33:32;;;;;;;2.22;0.50;;;8.60;72.50;;;;;;5013589;28;20030;-75
2022/04/14 11:36:15;;;;;;;13.48;0.70;;;8.70;73.00;;;;;;5012818;28;20022;-72
2022/04/14 11:38:52;;;;;;;32.30;1.77;;;8.80;94.80;;;;;;5012867;28;20460;-71
2022/04/14 11:41:44;;;;;;;2.28;1.13;;;10.60;94.60;;;;;;5013352;28;20029;-71
2022/04/14 11:44:22;;;;;;;1.00;0.60;;;10.50;73.30;;;;;;5013104;28;20045;-70
2022/04/14 11:46:50;;;;;;;1.30;0.50;;;9.90;73.80;;;;;;5012483;28;20927;-71
2022/04/14 11:49:23;;;;;;;3.55;0.43;;;9.50;74.00;;;;;;5013017;28;20018;-70
2022/04/14 11:51:54;;;;;;;1.48;0.50;;;9.20;73.90;;;;;;5012813;28;20025;-70
2022/04/14 11:54:31;;;;;;;7.15;0.60;;;9.00;74.00;;;;;;5013076;28;20425;-71
2022/04/14 11:57:25;;;;;;;8.02;0.90;;;8.80;75.50;;;;;;5012779;28;20477;-71
2022/04/14 11:59:51;;;;;;;3.60;0.60;;;8.80;76.30;;;;;;5012602;28;20493;-70
2022/04/14 12:02:18;;;;;;;2.47;0.70;;;8.70;75.90;;;;;;5012801;28;20029;-70
2022/04/14 12:04:45;;;;;;;2.88;0.63;;;8.60;75.50;;;;;;5012612;28;20382;-70
2022/04/14 12:07:11;;;;;;;0.57;0.57;;;8.60;76.90;;;;;;5012647;28;20024;-70
2022/04/14 12:09:37;;;;;;;11.07;0.98;;;8.60;76.60;;;;;;5012794;28;20116;-70
2022/04/14 12:12:16;;;;;;;1.45;0.50;;;8.60;75.90;;;;;;5012651;28;20473;-70
2022/04/14 12:14:47;;;;;;;86.18;5.43;;;8.50;73.90;;;;;;5012524;28;20495;-70
2022/04/14 12:17:14;;;;;;;0.60;0.50;;;8.50;74.20;;;;;;5012568;28;20128;-70
2022/04/14 12:19:45;;;;;;;1.90;0.63;;;8.60;73.30;;;;;;5012796;28;20106;-70
2022/04/14 12:22:11;;;;;;;0.50;0.50;;;8.60;72.70;;;;;;5012482;28;20036;-70
2022/04/14 12:24:37;;;;;;;1.75;0.50;;;8.60;72.80;;;;;;5012138;28;20469;-70
2022/04/14 12:27:03;;;;;;;3.65;0.40;;;8.60;72.70;;;;;;5012428;28;20030;-70
2022/04/14 12:29:30;;;;;;;1.58;0.38;;;8.60;71.40;;;;;;5012561;28;20022;-70
2022/04/14 12:32:09;;;;;;;1.58;0.55;;;8.60;70.00;;;;;;5012317;28;20033;-70
2022/04/14 12:34:40;;;;;;;3.30;0.63;;;8.60;70.30;;;;;;5012207;28;20026;-71
2022/04/14 12:37:08;;;;;;;1.63;0.60;;;9.30;84.00;;;;;;5012074;28;20069;-76
2022/04/14 12:39:34;;;;;;;0.60;0.50;;;9.20;72.60;;;;;;5012048;28;20034;-75
2022/04/14 12:42:00;;;;;;;0.63;0.50;;;9.10;71.40;;;;;;5012402;28;20485;-75
2022/04/14 12:44:25;;;;;;;0.60;0.45;;;8.90;69.40;;;;;;5011959;28;20026;-75
2022/04/14 12:46:52;;;;;;;2.10;0.60;;;8.70;69.70;;;;;;5012221;28;20374;-72
2022/04/14 12:49:32;;;;;;;1.55;0.40;;;8.60;70.40;;;;;;5011976;28;20034;-72
2022/04/14 12:52:01;;;;;;;1.65;0.50;;;8.60;69.70;;;;;;5011957;28;20084;-72
2022/04/14 12:54:27;;;;;;;2.17;0.63;;;8.50;70.20;;;;;;5011860;28;20393;-72
2022/04/14 12:56:58;;;;;;;6.78;0.60;;;8.60;70.30;;;;;;5011091;28;20026;-72
2022/04/14 12:59:25;;;;;;;2.63;0.50;;;8.60;70.10;;;;;;5015477;28;20052;-71
2022/04/14 13:01:57;;;;;;;1.27;0.40;;;8.70;69.90;;;;;;5009511;28;20041;-72
2022/04/14 13:04:35;;;;;;;2.17;0.50;;;8.70;69.00;;;;;;4989831;28;20441;-71
2022/04/14 13:07:15;;;;;;;0.63;0.50;;;8.70;69.30;;;;;;5012061;28;20436;-71
2022/04/14 13:09:57;;;;;;;2.13;0.80;;;8.60;69.00;;;;;;5015706;28;20117;-70
2022/04/14 13:12:43;;;;;;;1.52;0.50;;;8.50;68.80;;;;;;5003176;28;20377;-73
2022/04/14 13:15:13;;;;;;;2.63;0.52;;;8.50;68.60;;;;;;5017019;28;20455;-73
2022/04/14 13:17:40;;;;;;;1.50;0.50;;;8.50;68.90;;;;;;5015484;28;20037;-74
2022/04/14 13:20:17;;;;;;;1.52;0.70;;;8.50;68.20;;;;;;5017995;28;20024;-73
2022/04/14 13:22:44;;;;;;;2.15;0.60;;;8.50;68.50;;;;;;5016331;28;20022;-73
2022/04/14 13:25:13;;;;;;;1.13;0.50;;;8.50;68.60;;;;;;5009636;28;20022;-73
2022/04/14 13:27:39;;;;;;;2.05;0.50;;;8.50;68.10;;;;;;5009608;28;20481;-73
2022/04/14 13:30:05;;;;;;;19.60;1.50;;;8.50;68.00;;;;;;5006994;28;20072;-73
2022/04/14 13:32:31;;;;;;;31.75;2.05;;;8.50;67.00;;;;;;4992561;28;20030;-70
2022/04/14 13:34:57;;;;;;;1.00;0.68;;;8.50;68.30;;;;;;4999077;28;20478;-72
2022/04/14 13:37:23;;;;;;;0.40;0.40;;;8.50;66.00;;;;;;5019321;28;20042;-74
2022/04/14 13:39:49;;;;;;;8.27;0.80;;;8.40;66.10;;;;;;5037485;28;20034;-71
2022/04/14 13:42:15;;;;;;;3.33;0.45;;;8.40;66.80;;;;;;5037413;28;20026;-75
2022/04/14 13:44:43;;;;;;;1.13;0.77;;;8.40;66.10;;;;;;5037261;28;20160;-74
2022/04/14 13:47:10;;;;;;;2.10;0.50;;;8.40;66.20;;;;;;5037313;28;20030;-74
2022/04/14 13:49:36;;;;;;;0.95;0.40;;;8.30;66.20;;;;;;5034223;28;20029;-75
2022/04/14 13:52:03;;;;;;;0.40;0.40;;;8.30;66.40;;;;;;5037168;28;20038;-77
2022/04/14 13:54:30;;;;;;;0.43;0.40;;;8.30;66.50;;;;;;5037559;28;20098;-71
2022/04/14 13:56:56;;;;;;;1.92;0.60;;;8.30;66.40;;;;;;5037140;28;20035;-75
2022/04/14 13:59:22;;;;;;;0.40;0.40;;;8.30;66.80;;;;;;5037139;28;20029;-69
2022/04/14 14:01:47;;;;;;;5.60;0.45;;;8.40;65.70;;;;;;5037040;28;20076;-71
2022/04/14 14:04:13;;;;;;;32.15;1.73;;;8.40;65.20;;;;;;5031276;28;20026;-75
2022/04/14 14:06:39;;;;;;;5.28;0.70;;;8.40;64.20;;;;;;5017511;28;20037;-75